Time;durP1;ratioP1;P1;durP2;ratioP2;P2;SDS_P1;SDS_P2;PMS_P1;PMS_P2;Temp;Humidity;BMP_temperature;BMP_pressure;BME280_temperature;BME280_humidity;BME280_pressure;Samples;Min_cycle;Max_cycle;Signal;HPM_P1;HPM_P2
2023/06/12 00:00:26;;;;;;;5.15;2.62;;;;;;;15.37;100.00;100227.37;5587684;31;33807;-70
2023/06/12 00:03:34;;;;;;;3.37;2.47;;;;;;;15.32;100.00;100236.00;5587086;31;35050;-69
2023/06/12 00:06:42;;;;;;;6.40;2.28;;;;;;;15.37;100.00;100235.41;5587656;31;33815;-69
2023/06/12 00:09:50;;;;;;;2.85;1.92;;;;;;;15.28;100.00;100242.78;5587566;31;33615;-70
2023/06/12 00:12:57;;;;;;;8.30;2.62;;;;;;;15.43;100.00;100239.94;5586680;31;33979;-69
2023/06/12 00:16:04;;;;;;;4.18;2.50;;;;;;;15.44;100.00;100231.69;5587480;31;34876;-69
2023/06/12 00:19:11;;;;;;;3.80;2.25;;;;;;;15.41;100.00;100232.12;5587380;31;33864;-69
2023/06/12 00:22:18;;;;;;;5.07;2.65;;;;;;;15.42;100.00;100227.59;5586619;31;33804;-68
2023/06/12 00:25:28;;;;;;;6.20;2.40;;;;;;;15.36;100.00;100223.87;5587035;31;34478;-68
2023/06/12 00:28:38;;;;;;;4.50;2.50;;;;;;;15.32;100.00;100217.28;5587448;31;33701;-68
2023/06/12 00:31:46;;;;;;;3.40;2.70;;;;;;;15.28;100.00;100218.72;5587437;31;33887;-69
2023/06/12 00:34:52;;;;;;;3.97;2.40;;;;;;;15.30;100.00;100219.34;5586875;31;34253;-69
2023/06/12 00:37:59;;;;;;;6.00;2.95;;;;;;;15.27;100.00;100216.25;5587761;31;33929;-69
2023/06/12 00:41:06;;;;;;;4.60;2.60;;;;;;;15.29;100.00;100211.53;5587337;31;34892;-70
2023/06/12 00:44:12;;;;;;;8.27;2.42;;;;;;;15.29;100.00;100214.22;5587220;31;33747;-69
2023/06/12 00:47:18;;;;;;;6.25;2.50;;;;;;;15.21;100.00;100209.84;5587333;31;33917;-69
2023/06/12 00:50:28;;;;;;;4.93;2.60;;;;;;;15.23;100.00;100210.50;5587070;31;34837;-69
2023/06/12 00:53:36;;;;;;;3.30;2.40;;;;;;;15.25;100.00;100215.66;5587505;31;33885;-69
2023/06/12 00:56:42;;;;;;;3.17;2.70;;;;;;;15.14;100.00;100211.69;5586472;31;33627;-68
2023/06/12 00:59:49;;;;;;;3.90;2.65;;;;;;;15.08;100.00;100210.66;5586277;31;33783;-69
2023/06/12 01:03:05;;;;;;;4.10;2.40;;;;;;;15.03;100.00;100213.09;5587231;31;33703;-70
2023/06/12 01:06:20;;;;;;;3.65;2.75;;;;;;;15.04;100.00;100206.75;5587044;31;35037;-70
2023/06/12 01:09:33;;;;;;;5.40;2.78;;;;;;;15.08;100.00;100207.16;5587107;31;33906;-70
2023/06/12 01:12:41;;;;;;;3.00;2.12;;;;;;;14.98;100.00;100212.88;5587031;31;33762;-70
2023/06/12 01:15:49;;;;;;;9.43;3.22;;;;;;;14.95;100.00;100207.13;5585296;31;34547;-70
2023/06/12 01:19:00;;;;;;;4.10;2.50;;;;;;;14.92;100.00;100213.66;5586986;31;33632;-70
2023/06/12 01:22:10;;;;;;;3.20;2.40;;;;;;;14.83;100.00;100212.19;5581300;31;33549;-70
2023/06/12 01:25:49;;;;;;;3.72;2.55;;;;;;;14.94;100.00;100210.81;5567309;32;33874;-70
2023/06/12 01:29:11;;;;;;;5.62;2.72;;;;;;;14.86;100.00;100202.97;5567038;32;34278;-70
2023/06/12 01:32:20;;;;;;;4.30;2.33;;;;;;;14.84;100.00;100202.34;5567150;32;33889;-70
2023/06/12 01:35:30;;;;;;;5.53;2.50;;;;;;;14.90;100.00;100201.56;5567316;32;33347;-70
2023/06/12 01:38:40;;;;;;;5.37;2.62;;;;;;;14.85;100.00;100196.00;5567012;32;34526;-70
2023/06/12 01:41:46;;;;;;;3.20;2.55;;;;;;;14.87;100.00;100202.75;5567027;32;33839;-69
2023/06/12 01:44:53;;;;;;;5.35;2.72;;;;;;;14.76;100.00;100204.16;5566989;32;34548;-70
2023/06/12 01:48:00;;;;;;;3.62;2.60;;;;;;;14.74;100.00;100202.72;5566251;32;35136;-69
2023/06/12 01:51:07;;;;;;;6.05;2.60;;;;;;;14.68;100.00;100206.16;5566904;32;34640;-70
2023/06/12 01:54:15;;;;;;;4.53;2.65;;;;;;;14.66;100.00;100202.91;5566942;32;33808;-69
2023/06/12 01:57:21;;;;;;;5.68;2.70;;;;;;;14.65;100.00;100204.75;5566730;32;33585;-69
2023/06/12 02:00:28;;;;;;;5.00;2.78;;;;;;;14.64;100.00;100204.94;5567043;32;33678;-70
2023/06/12 02:03:37;;;;;;;4.65;2.92;;;;;;;14.67;100.00;100205.34;5566698;32;33769;-69
2023/06/12 02:06:43;;;;;;;7.75;2.67;;;;;;;14.66;100.00;100206.41;5566696;32;33792;-69
2023/06/12 02:09:50;;;;;;;4.95;3.00;;;;;;;14.66;100.00;100203.72;5566513;32;33988;-70
2023/06/12 02:12:57;;;;;;;4.85;2.83;;;;;;;14.64;100.00;100210.28;5566471;32;34442;-69
2023/06/12 02:16:07;;;;;;;4.30;2.72;;;;;;;14.53;100.00;100202.81;5566865;32;33634;-69
2023/06/12 02:19:16;;;;;;;4.22;2.60;;;;;;;14.50;100.00;100205.88;5566440;32;33804;-69
2023/06/12 02:22:25;;;;;;;5.50;3.03;;;;;;;14.41;100.00;100207.06;5566390;32;33906;-69
2023/06/12 02:25:35;;;;;;;5.10;2.70;;;;;;;14.38;100.00;100210.94;5566891;32;34459;-69
2023/06/12 02:29:06;;;;;;;3.78;2.72;;;;;;;14.39;100.00;100206.44;5568886;32;33657;-69
2023/06/12 02:32:15;;;;;;;7.70;3.17;;;;;;;14.32;100.00;100217.88;5568824;32;34167;-69
2023/06/12 02:35:25;;;;;;;4.55;3.00;;;;;;;14.29;100.00;100218.25;5568822;32;34326;-70
2023/06/12 02:38:32;;;;;;;6.85;3.00;;;;;;;14.29;100.00;100212.91;5568688;32;34026;-69
2023/06/12 02:41:44;;;;;;;4.30;2.70;;;;;;;14.36;100.00;100218.34;5568617;32;34744;-70
2023/06/12 02:44:49;;;;;;;5.60;3.10;;;;;;;14.28;100.00;100216.59;5568646;32;33715;-69
2023/06/12 02:47:59;;;;;;;9.53;3.27;;;;;;;14.37;100.00;100220.00;5568683;32;33676;-69
2023/06/12 02:51:06;;;;;;;4.50;2.87;;;;;;;14.40;100.00;100219.59;5568486;32;33828;-69
2023/06/12 02:54:16;;;;;;;4.93;3.00;;;;;;;14.39;100.00;100220.59;5568652;32;33978;-69
2023/06/12 02:57:25;;;;;;;3.40;3.10;;;;;;;14.40;100.00;100226.75;5568520;32;33692;-70
2023/06/12 03:00:33;;;;;;;3.75;2.90;;;;;;;14.41;100.00;100231.09;5568567;32;33830;-70
2023/06/12 03:03:39;;;;;;;5.62;3.50;;;;;;;14.37;100.00;100233.34;5568549;32;34335;-69
2023/06/12 03:06:52;;;;;;;6.30;3.20;;;;;;;14.32;100.00;100233.87;5568591;32;33711;-69
2023/06/12 03:09:59;;;;;;;5.82;2.83;;;;;;;14.33;100.00;100227.50;5568539;32;34288;-69
2023/06/12 03:13:08;;;;;;;5.22;3.00;;;;;;;14.41;100.00;100231.09;5568312;32;34679;-70
2023/06/12 03:16:16;;;;;;;3.50;2.95;;;;;;;14.50;100.00;100237.91;5568403;32;33976;-70
2023/06/12 03:19:24;;;;;;;4.35;3.10;;;;;;;14.45;100.00;100230.50;5568344;32;33578;-69
2023/06/12 03:22:30;;;;;;;4.00;3.05;;;;;;;14.47;100.00;100235.66;5568325;32;33472;-70
2023/06/12 03:25:39;;;;;;;6.37;2.92;;;;;;;14.50;100.00;100232.56;5568338;32;33848;-69
2023/06/12 03:28:46;;;;;;;3.75;2.90;;;;;;;14.47;100.00;100225.81;5567290;32;34293;-69
2023/06/12 03:31:54;;;;;;;4.53;3.35;;;;;;;14.48;100.00;100223.94;5567431;32;34517;-69
2023/06/12 03:35:02;;;;;;;7.07;2.92;;;;;;;14.52;100.00;100220.69;5568217;32;34718;-69
2023/06/12 03:38:10;;;;;;;3.60;2.80;;;;;;;14.56;100.00;100227.28;5567441;32;34374;-69
2023/06/12 03:41:20;;;;;;;4.75;2.80;;;;;;;14.63;100.00;100222.78;5568204;32;33908;-70
2023/06/12 03:44:27;;;;;;;4.62;2.92;;;;;;;14.64;100.00;100215.59;5568418;32;33975;-70
2023/06/12 03:47:33;;;;;;;6.93;3.00;;;;;;;14.67;100.00;100229.38;5568138;32;33911;-69
2023/06/12 03:50:41;;;;;;;6.17;2.73;;;;;;;14.72;100.00;100231.44;5568273;32;34565;-69
2023/06/12 03:53:47;;;;;;;9.45;3.10;;;;;;;14.76;100.00;100228.19;5567337;32;33841;-69
2023/06/12 03:56:53;;;;;;;3.67;2.60;;;;;;;14.78;100.00;100226.16;5568096;32;34521;-70
2023/06/12 04:00:00;;;;;;;5.53;2.95;;;;;;;14.86;100.00;100237.69;5568425;32;33749;-70
2023/06/12 04:03:10;;;;;;;4.87;2.90;;;;;;;14.84;100.00;100232.56;5568071;32;33910;-70
2023/06/12 04:06:18;;;;;;;7.03;3.33;;;;;;;14.87;100.00;100231.31;5568072;32;34489;-70
2023/06/12 04:09:25;;;;;;;6.05;2.85;;;;;;;14.92;100.00;100235.03;5567975;32;33920;-69
2023/06/12 04:12:32;;;;;;;6.90;2.60;;;;;;;14.96;100.00;100230.16;5567927;32;33805;-70
2023/06/12 04:15:40;;;;;;;5.07;2.58;;;;;;;14.98;100.00;100231.56;5579355;31;34068;-69
2023/06/12 04:18:47;;;;;;;4.53;3.05;;;;;;;14.97;100.00;100235.28;5587192;31;33938;-70
2023/06/12 04:21:54;;;;;;;7.72;3.00;;;;;;;15.11;100.00;100234.28;5586559;31;33552;-69
2023/06/12 04:25:05;;;;;;;7.30;2.90;;;;;;;15.08;100.00;100226.69;5587534;31;34446;-70
2023/06/12 04:28:16;;;;;;;5.82;3.17;;;;;;;15.13;100.00;100237.59;5587442;31;33955;-70
2023/06/12 04:31:28;;;;;;;5.30;2.92;;;;;;;15.14;100.00;100231.25;5586488;31;34614;-69
2023/06/12 04:34:43;;;;;;;7.75;2.83;;;;;;;15.19;100.00;100241.31;5587340;31;33571;-70
2023/06/12 04:37:52;;;;;;;4.30;2.80;;;;;;;15.28;100.00;100225.91;5587336;31;33864;-68
2023/06/12 04:40:56;;;;;;;3.22;2.72;;;;;;;15.40;100.00;100229.63;5587262;31;33951;-67
2023/06/12 04:44:03;;;;;;;5.18;2.55;;;;;;;15.44;100.00;100231.69;5587251;31;34302;-70
2023/06/12 04:47:11;;;;;;;5.07;2.97;;;;;;;15.45;100.00;100236.03;5587013;31;33895;-70
2023/06/12 04:50:16;;;;;;;8.45;2.47;;;;;;;15.54;99.73;100240.19;5586170;31;33547;-70
2023/06/12 04:53:29;;;;;;;3.70;2.50;;;;;;;15.50;98.19;100241.59;5586964;31;33793;-70
2023/06/12 04:56:35;;;;;;;4.15;2.50;;;;;;;15.55;97.09;100251.72;5587158;31;33679;-70
2023/06/12 04:59:44;;;;;;;5.18;2.70;;;;;;;15.64;96.39;100251.31;5586870;31;34484;-69
2023/06/12 05:02:52;;;;;;;5.05;2.80;;;;;;;15.61;96.77;100248.22;5587339;31;33838;-67
2023/06/12 05:05:57;;;;;;;5.70;2.53;;;;;;;15.61;94.75;100237.53;5586814;31;33711;-66
2023/06/12 05:09:07;;;;;;;3.55;2.65;;;;;;;15.68;93.29;100241.06;5587074;31;33949;-70
2023/06/12 05:12:13;;;;;;;6.43;2.90;;;;;;;15.69;93.07;100237.31;5586529;31;34009;-68
2023/06/12 05:15:21;;;;;;;5.43;2.42;;;;;;;15.80;93.59;100247.41;5586125;31;34736;-68
2023/06/12 05:18:25;;;;;;;4.20;2.60;;;;;;;15.87;92.91;100242.91;5585856;31;33898;-67
2023/06/12 05:21:30;;;;;;;8.10;2.50;;;;;;;15.94;89.63;100245.56;5582514;31;33975;-68
2023/06/12 05:24:32;;;;;;;7.47;2.35;;;;;;;16.05;87.00;100240.44;5586450;31;34734;-69
2023/06/12 05:27:39;;;;;;;6.65;2.70;;;;;;;16.05;89.40;100240.44;5586117;31;34489;-70
2023/06/12 05:30:47;;;;;;;3.67;2.40;;;;;;;16.11;87.63;100237.97;5586000;31;33661;-69
2023/06/12 05:33:52;;;;;;;6.65;2.70;;;;;;;16.28;88.64;100242.66;5582524;31;33954;-71
2023/06/12 05:36:57;;;;;;;7.20;2.78;;;;;;;16.12;84.99;100243.09;5584263;31;34492;-68
2023/06/12 05:40:05;;;;;;;5.80;2.22;;;;;;;16.34;87.86;100247.19;5571033;31;34562;-69
2023/06/12 05:43:11;;;;;;;13.50;3.15;;;;;;;16.27;82.32;100245.53;5582475;31;34985;-67
2023/06/12 05:46:15;;;;;;;14.85;2.50;;;;;;;16.43;84.97;100250.47;5570299;31;34360;-67
2023/06/12 05:49:19;;;;;;;8.55;2.70;;;;;;;16.31;79.01;100249.47;5571995;31;34274;-69
2023/06/12 05:52:25;;;;;;;13.95;2.65;;;;;;;16.48;81.21;100246.16;5577119;31;33958;-66
2023/06/12 05:55:29;;;;;;;8.90;2.75;;;;;;;16.62;77.99;100255.00;5582544;31;33606;-69
2023/06/12 05:58:33;;;;;;;15.20;2.92;;;;;;;16.73;77.32;100259.72;5573609;31;34301;-69
2023/06/12 06:01:37;;;;;;;25.80;3.10;;;;;;;16.78;75.36;100265.25;5584499;31;33648;-66
2023/06/12 06:04:42;;;;;;;12.98;3.00;;;;;;;16.78;74.16;100261.75;5584084;31;34050;-69
2023/06/12 06:07:49;;;;;;;18.73;2.75;;;;;;;16.80;74.02;100259.69;5574743;31;34569;-69
2023/06/12 06:10:53;;;;;;;16.08;2.90;;;;;;;16.80;70.94;100257.00;5580847;31;35315;-69
2023/06/12 06:13:58;;;;;;;11.32;2.53;;;;;;;16.97;72.18;100265.41;5581255;31;34041;-66
2023/06/12 06:17:04;;;;;;;9.57;2.37;;;;;;;17.18;72.67;100268.63;5566101;32;33588;-69
2023/06/12 06:20:11;;;;;;;5.85;2.50;;;;;;;17.27;68.23;100271.88;5567297;31;34024;-70
2023/06/12 06:23:16;;;;;;;3.40;2.00;;;;;;;17.47;68.70;100274.47;5585591;31;33945;-67
2023/06/12 06:26:21;;;;;;;6.90;2.03;;;;;;;17.54;65.98;100259.97;5577484;31;34000;-66
2023/06/12 06:29:26;;;;;;;6.40;2.00;;;;;;;17.34;63.44;100264.59;5574810;31;34450;-67
2023/06/12 06:32:30;;;;;;;9.48;2.37;;;;;;;17.10;63.44;100259.97;5601067;31;33780;-69
2023/06/12 06:35:35;;;;;;;5.55;2.00;;;;;;;17.38;65.60;100263.13;5600124;31;34060;-70
2023/06/12 06:38:39;;;;;;;7.32;2.08;;;;;;;17.57;62.56;100264.09;5577757;31;34514;-69
2023/06/12 06:41:42;;;;;;;9.50;2.03;;;;;;;17.57;59.90;100258.72;5574919;31;33808;-67
2023/06/12 06:44:46;;;;;;;6.25;2.10;;;;;;;17.64;61.11;100263.03;5579440;31;34327;-69
2023/06/12 06:47:53;;;;;;;11.18;2.30;;;;;;;17.71;59.12;100271.03;5571959;31;32202;-68
2023/06/12 06:50:57;;;;;;;5.25;1.70;;;;;;;17.89;58.96;100281.03;5584492;31;34141;-68
2023/06/12 06:54:00;;;;;;;8.95;2.20;;;;;;;17.93;58.05;100280.38;5585226;31;33979;-69
2023/06/12 06:57:06;;;;;;;8.27;2.30;;;;;;;17.99;57.42;100276.81;5564917;31;33524;-69
2023/06/12 07:00:15;;;;;;;7.37;1.90;;;;;;;18.20;54.93;100276.41;5565482;32;33884;-68
2023/06/12 07:03:19;;;;;;;5.70;2.30;;;;;;;18.28;55.60;100272.66;5565600;31;34238;-68
2023/06/12 07:06:25;;;;;;;7.12;2.03;;;;;;;18.29;54.37;100260.87;5566422;31;33853;-67
2023/06/12 07:09:28;;;;;;;12.10;2.03;;;;;;;18.34;52.30;100282.53;5564283;32;33680;-69
2023/06/12 07:12:34;;;;;;;9.07;2.10;;;;;;;18.59;52.44;100277.94;5565609;32;33557;-68
2023/06/12 07:15:37;;;;;;;12.20;1.83;;;;;;;18.63;51.49;100286.41;5541769;32;34434;-68
2023/06/12 07:18:42;;;;;;;10.02;1.98;;;;;;;18.78;50.62;100276.12;5568260;32;34283;-65
2023/06/12 07:21:48;;;;;;;6.00;1.95;;;;;;;18.57;51.10;100268.47;5574682;31;34680;-66
2023/06/12 07:24:51;;;;;;;3.30;1.85;;;;;;;18.85;50.56;100265.25;5587316;31;34616;-67
2023/06/12 07:27:56;;;;;;;6.28;1.80;;;;;;;18.77;49.31;100269.09;5587867;31;34414;-65
2023/06/12 07:31:01;;;;;;;11.38;1.98;;;;;;;18.81;49.86;100272.13;5587549;31;33845;-69
2023/06/12 07:34:04;;;;;;;6.50;1.60;;;;;;;19.21;48.53;100267.94;5587402;31;34120;-67
2023/06/12 07:37:12;;;;;;;8.95;1.80;;;;;;;19.85;47.71;100269.09;5586861;31;33916;-69
2023/06/12 07:40:17;;;;;;;5.70;1.77;;;;;;;20.35;45.96;100267.69;5587313;31;34730;-70
2023/06/12 07:43:20;;;;;;;6.53;1.58;;;;;;;20.86;44.61;100270.69;5587556;31;33677;-69
2023/06/12 07:46:25;;;;;;;3.33;1.60;;;;;;;20.86;43.24;100265.31;5586407;31;34458;-71
2023/06/12 07:49:30;;;;;;;2.37;1.50;;;;;;;21.13;42.85;100264.56;5585682;31;34847;-67
2023/06/12 07:52:35;;;;;;;13.77;2.35;;;;;;;21.68;41.58;100266.69;5574604;31;34688;-68
2023/06/12 07:55:40;;;;;;;12.00;1.92;;;;;;;20.98;43.36;100271.47;5572062;31;33665;-71
2023/06/12 07:58:46;;;;;;;2.12;1.42;;;;;;;21.60;41.43;100273.28;5587184;31;33686;-70
2023/06/12 08:01:51;;;;;;;6.43;1.90;;;;;;;20.91;41.67;100273.50;5585283;31;33559;-69
2023/06/12 08:04:56;;;;;;;5.78;1.30;;;;;;;21.07;41.65;100278.13;5585362;31;33966;-69
2023/06/12 08:08:00;;;;;;;4.85;1.45;;;;;;;20.79;41.51;100281.59;5585558;31;34212;-70
2023/06/12 08:11:05;;;;;;;6.85;1.48;;;;;;;21.85;41.08;100277.50;5585628;31;33465;-71
2023/06/12 08:14:08;;;;;;;8.75;1.65;;;;;;;21.41;41.72;100271.00;5585796;31;33883;-71
2023/06/12 08:17:12;;;;;;;4.20;1.50;;;;;;;23.06;39.29;100278.53;5586513;31;33668;-72
2023/06/12 08:20:17;;;;;;;11.50;1.70;;;;;;;22.73;38.84;100268.66;5587132;31;33799;-68
2023/06/12 08:23:22;;;;;;;5.82;1.50;;;;;;;22.09;40.49;100269.03;5582863;31;33707;-71
2023/06/12 08:26:27;;;;;;;5.22;1.50;;;;;;;22.16;40.64;100270.75;5569697;31;33652;-70
2023/06/12 08:29:31;;;;;;;5.55;1.60;;;;;;;22.41;39.67;100273.84;5567326;32;33670;-71
2023/06/12 08:32:35;;;;;;;12.60;1.50;;;;;;;22.23;39.43;100264.09;5567392;32;33870;-70
2023/06/12 08:35:40;;;;;;;4.70;1.40;;;;;;;23.17;40.30;100259.47;5567205;32;34567;-69
2023/06/12 08:38:44;;;;;;;3.85;1.55;;;;;;;22.82;39.87;100264.44;5581198;31;33800;-72
2023/06/12 08:42:03;;;;;;;4.93;1.50;;;;;;;24.37;36.97;100260.06;5586899;31;34106;-70
2023/06/12 08:45:09;;;;;;;5.07;1.58;;;;;;;25.12;35.65;100257.75;5578786;31;34208;-71
2023/06/12 08:48:27;;;;;;;5.65;1.40;;;;;;;25.98;34.97;100265.31;5573319;31;34190;-71
2023/06/12 08:51:32;;;;;;;10.30;1.80;;;;;;;25.97;33.64;100269.09;5580481;31;33625;-70
2023/06/12 08:54:39;;;;;;;4.15;1.55;;;;;;;24.82;35.24;100262.25;5586738;31;34667;-71
2023/06/12 08:57:43;;;;;;;3.20;1.30;;;;;;;24.46;35.93;100261.22;5586741;31;34216;-69
2023/06/12 09:00:47;;;;;;;5.62;1.60;;;;;;;23.73;36.32;100266.31;5586480;31;33947;-72
2023/06/12 09:03:55;;;;;;;4.47;1.37;;;;;;;23.46;37.84;100272.81;5586973;31;34317;-70
2023/06/12 09:07:03;;;;;;;7.62;1.58;;;;;;;24.93;35.84;100270.19;5586071;31;34368;-70
2023/06/12 09:10:07;;;;;;;5.95;1.77;;;;;;;23.99;36.47;100261.94;5582105;31;33804;-69
2023/06/12 09:13:18;;;;;;;17.02;1.58;;;;;;;22.97;38.23;100259.22;5582825;31;34558;-70
2023/06/12 09:16:26;;;;;;;6.90;1.50;;;;;;;23.81;38.39;100254.19;5586389;31;34814;-70
2023/06/12 09:19:39;;;;;;;3.78;1.73;;;;;;;25.24;34.77;100260.25;5586149;31;33590;-70
2023/06/12 09:22:44;;;;;;;11.93;1.77;;;;;;;25.82;33.86;100260.94;5586252;31;34544;-71
2023/06/12 09:25:54;;;;;;;6.03;1.58;;;;;;;24.59;36.09;100258.06;5585955;31;34141;-71
2023/06/12 09:29:03;;;;;;;5.03;1.60;;;;;;;24.49;35.51;100252.56;5585898;31;33591;-69
2023/06/12 09:32:12;;;;;;;3.72;1.60;;;;;;;24.83;34.86;100256.56;5586071;31;33614;-70
2023/06/12 09:35:16;;;;;;;6.30;1.98;;;;;;;24.40;36.30;100260.34;5585309;31;33813;-71
2023/06/12 09:38:39;;;;;;;8.45;1.70;;;;;;;24.37;36.56;100263.59;5586002;31;34008;-70
2023/06/12 09:41:50;;;;;;;3.55;1.30;;;;;;;27.17;33.68;100258.25;5569725;31;34764;-70
2023/06/12 09:45:16;;;;;;;9.98;2.00;;;;;;;26.69;33.96;100257.06;5579147;31;33893;-71
2023/06/12 09:48:23;;;;;;;3.42;1.40;;;;;;;25.51;35.62;100252.72;5568717;31;33615;-71
2023/06/12 09:51:27;;;;;;;10.75;1.60;;;;;;;25.34;35.90;100249.44;5567182;31;34637;-69
2023/06/12 09:54:33;;;;;;;3.45;1.45;;;;;;;25.59;35.02;100259.56;5566497;32;33913;-70
2023/06/12 09:57:40;;;;;;;5.50;1.60;;;;;;;26.75;34.09;100250.53;5570879;31;34349;-69
2023/06/12 10:00:45;;;;;;;2.15;1.27;;;;;;;26.08;34.69;100257.16;5585188;31;34545;-71
2023/06/12 10:03:54;;;;;;;5.87;1.50;;;;;;;26.10;33.63;100254.13;5585618;31;33895;-72
2023/06/12 10:07:06;;;;;;;3.20;1.55;;;;;;;26.03;34.47;100259.88;5585699;31;34826;-68
2023/06/12 10:10:10;;;;;;;5.93;1.40;;;;;;;25.75;34.34;100254.97;5586578;31;33836;-71
2023/06/12 10:13:15;;;;;;;5.32;1.90;;;;;;;27.80;31.43;100258.44;5585744;31;33150;-71
2023/06/12 10:16:20;;;;;;;2.35;1.30;;;;;;;27.31;31.80;100250.28;5585591;31;33849;-71
2023/06/12 10:19:30;;;;;;;4.95;1.50;;;;;;;28.72;29.76;100251.88;5585747;31;33598;-69
2023/06/12 10:22:35;;;;;;;5.30;1.33;;;;;;;28.74;31.08;100249.69;5584836;31;33926;-68
2023/06/12 10:25:38;;;;;;;6.12;1.98;;;;;;;27.02;32.88;100247.44;5585654;31;33634;-69
2023/06/12 10:28:42;;;;;;;8.77;1.40;;;;;;;25.91;33.81;100251.97;5585527;31;35142;-69
2023/06/12 10:31:46;;;;;;;8.98;1.30;;;;;;;26.65;33.69;100247.81;5585656;31;32484;-71
2023/06/12 10:34:54;;;;;;;9.98;1.83;;;;;;;26.96;32.50;100249.38;5585474;31;35378;-69
2023/06/12 10:37:57;;;;;;;3.03;1.20;;;;;;;26.49;32.61;100251.66;5585135;31;33934;-71
2023/06/12 10:41:00;;;;;;;2.78;1.30;;;;;;;25.81;31.88;100245.72;5585239;31;33985;-70
2023/06/12 10:44:41;;;;;;;5.20;1.30;;;;;;;26.69;31.12;100240.72;5576863;31;33801;-70
2023/06/12 10:48:03;;;;;;;9.63;1.65;;;;;;;28.52;29.39;100227.50;5571173;31;33778;-71
2023/06/12 10:51:11;;;;;;;3.95;1.30;;;;;;;29.57;29.47;100227.28;5577489;31;33665;-69
2023/06/12 10:54:15;;;;;;;3.97;1.95;;;;;;;27.81;29.91;100228.19;5574932;31;34488;-71
2023/06/12 10:57:27;;;;;;;4.82;1.30;;;;;;;26.59;30.32;100232.59;5568132;32;33639;-72
2023/06/12 11:00:42;;;;;;;4.53;1.73;;;;;;;27.89;30.09;100215.81;5573869;31;33863;-71
2023/06/12 11:03:49;;;;;;;6.05;1.45;;;;;;;30.67;27.10;100220.19;5576402;31;34018;-71
2023/06/12 11:06:53;;;;;;;7.47;1.87;;;;;;;32.15;25.62;100216.50;5568807;31;33907;-69
2023/06/12 11:09:56;;;;;;;6.03;1.40;;;;;;;27.66;30.29;100203.75;5579493;31;33850;-70
2023/06/12 11:13:01;;;;;;;5.78;1.70;;;;;;;27.32;31.41;100209.16;5587547;31;35325;-70
2023/06/12 11:16:04;;;;;;;2.97;1.37;;;;;;;28.12;29.86;100203.41;5587278;31;33820;-69
2023/06/12 11:19:07;;;;;;;5.22;1.52;;;;;;;28.14;28.60;100206.63;5587356;31;34460;-71
2023/06/12 11:22:10;;;;;;;4.72;1.37;;;;;;;28.76;28.75;100190.13;5586395;31;35135;-72
2023/06/12 11:25:16;;;;;;;2.58;1.52;;;;;;;31.24;26.16;100194.03;5586765;31;34539;-71
2023/06/12 11:28:28;;;;;;;2.28;1.20;;;;;;;31.97;25.78;100197.50;5587646;31;33787;-69
2023/06/12 11:31:37;;;;;;;3.62;1.30;;;;;;;30.22;26.73;100194.47;5575736;31;33921;-70
2023/06/12 11:34:41;;;;;;;6.15;1.23;;;;;;;30.57;25.79;100185.59;5573088;31;33781;-68
2023/06/12 11:37:45;;;;;;;9.80;1.52;;;;;;;30.93;25.87;100191.16;5587546;31;34373;-70
2023/06/12 11:40:53;;;;;;;7.00;1.75;;;;;;;28.91;27.52;100181.75;5587222;31;34446;-70
2023/06/12 11:43:57;;;;;;;4.78;1.40;;;;;;;31.06;25.50;100184.03;5587232;31;33984;-70
2023/06/12 11:47:01;;;;;;;3.45;1.35;;;;;;;28.84;26.96;100184.03;5587301;31;33767;-71
2023/06/12 11:50:17;;;;;;;6.28;1.85;;;;;;;28.47;27.64;100176.53;5584836;31;33932;-70
2023/06/12 11:53:21;;;;;;;3.33;1.40;;;;;;;30.32;25.98;100182.50;5587438;31;33552;-69
2023/06/12 11:56:25;;;;;;;6.45;1.37;;;;;;;30.37;25.46;100172.28;5586295;31;33790;-70
2023/06/12 11:59:37;;;;;;;5.75;1.40;;;;;;;30.00;25.19;100183.37;5586190;31;33977;-70
2023/06/12 12:02:42;;;;;;;7.75;1.40;;;;;;;30.72;24.86;100180.91;5586529;31;34124;-70
2023/06/12 12:05:50;;;;;;;7.45;1.55;;;;;;;33.51;21.86;100186.97;5587421;31;34390;-71
2023/06/12 12:08:55;;;;;;;7.85;1.70;;;;;;;32.07;21.06;100180.75;5586894;31;33961;-70
2023/06/12 12:12:10;;;;;;;5.50;1.48;;;;;;;34.01;19.60;100184.50;5585533;31;34423;-70
2023/06/12 12:15:15;;;;;;;4.03;1.50;;;;;;;32.73;20.49;100177.00;5571978;31;33871;-73
2023/06/12 12:18:20;;;;;;;2.00;1.27;;;;;;;32.41;21.10;100177.38;5585556;31;33838;-70
2023/06/12 12:21:24;;;;;;;4.93;1.50;;;;;;;31.28;20.38;100175.03;5579283;31;35155;-71
2023/06/12 12:24:36;;;;;;;5.32;1.50;;;;;;;33.12;20.05;100179.66;5572881;31;34398;-71
2023/06/12 12:27:39;;;;;;;2.33;1.37;;;;;;;35.76;17.47;100179.22;5568623;31;33820;-70
2023/06/12 12:30:44;;;;;;;3.08;1.52;;;;;;;35.46;18.44;100173.00;5578143;31;33861;-72
2023/06/12 12:33:47;;;;;;;3.87;1.45;;;;;;;33.39;20.06;100164.03;5579081;31;34039;-71
2023/06/12 12:36:52;;;;;;;5.78;1.30;;;;;;;33.54;20.23;100158.84;5574665;31;33803;-70
2023/06/12 12:39:56;;;;;;;6.53;1.80;;;;;;;33.23;20.57;100163.69;5587256;31;33843;-71
2023/06/12 12:42:59;;;;;;;7.47;1.70;;;;;;;32.80;21.20;100160.06;5585930;31;34454;-71
2023/06/12 12:46:02;;;;;;;9.18;1.40;;;;;;;31.69;22.99;100158.44;5577479;31;33857;-71
2023/06/12 12:49:07;;;;;;;5.40;1.50;;;;;;;30.90;24.03;100158.87;5576759;31;33781;-69
2023/06/12 12:52:11;;;;;;;8.48;1.67;;;;;;;28.74;22.41;100153.31;5585190;31;34037;-69
2023/06/12 12:55:32;;;;;;;5.85;1.73;;;;;;;30.56;20.78;100158.50;5581517;31;33637;-72
2023/06/12 12:58:37;;;;;;;4.90;1.75;;;;;;;31.97;19.52;100159.88;5580663;31;34437;-70
2023/06/12 13:01:41;;;;;;;4.65;1.60;;;;;;;32.13;19.50;100161.12;5575723;31;33614;-70
2023/06/12 13:04:47;;;;;;;3.08;1.55;;;;;;;34.80;17.19;100164.56;5572972;31;34005;-70
2023/06/12 13:07:51;;;;;;;4.80;1.40;;;;;;;35.39;16.65;100160.91;5567613;31;33840;-71
2023/06/12 13:10:55;;;;;;;8.48;1.70;;;;;;;35.03;16.77;100158.72;5569638;31;32944;-70
2023/06/12 13:14:00;;;;;;;6.15;1.75;;;;;;;35.65;17.03;100159.53;5585894;31;33911;-71
2023/06/12 13:17:05;;;;;;;7.28;1.45;;;;;;;33.00;19.82;100138.28;5585583;31;33769;-71
2023/06/12 13:20:11;;;;;;;5.80;1.60;;;;;;;33.50;19.27;100146.06;5582023;31;34783;-71
2023/06/12 13:23:15;;;;;;;3.10;1.42;;;;;;;31.02;21.72;100142.75;5586239;31;34246;-71
2023/06/12 13:26:20;;;;;;;4.00;1.30;;;;;;;31.93;19.75;100136.94;5568799;31;34910;-71
2023/06/12 13:29:26;;;;;;;6.55;1.58;;;;;;;34.24;16.87;100140.22;5583121;31;33788;-70
2023/06/12 13:32:30;;;;;;;3.85;1.30;;;;;;;32.33;17.17;100138.63;5585271;31;33844;-71
2023/06/12 13:35:34;;;;;;;3.08;1.40;;;;;;;32.69;16.79;100143.06;5584116;31;33911;-69
2023/06/12 13:38:42;;;;;;;3.80;1.40;;;;;;;35.18;15.30;100142.41;5577681;31;34290;-70
2023/06/12 13:41:46;;;;;;;3.15;1.52;;;;;;;35.18;15.21;100133.34;5579202;31;33898;-74
2023/06/12 13:44:51;;;;;;;4.57;1.50;;;;;;;35.65;14.54;100123.66;5555605;31;33555;-71
2023/06/12 13:47:55;;;;;;;3.10;1.40;;;;;;;33.07;16.79;100127.59;5585586;31;33658;-68
2023/06/12 13:50:59;;;;;;;2.80;1.40;;;;;;;31.71;17.11;100123.28;5581368;31;34989;-69
2023/06/12 13:54:02;;;;;;;8.57;1.58;;;;;;;32.09;17.11;100124.44;5583592;31;33603;-70
2023/06/12 13:57:06;;;;;;;3.20;1.27;;;;;;;34.82;16.46;100126.44;5580214;31;33972;-71
2023/06/12 14:00:12;;;;;;;3.37;1.48;;;;;;;36.28;17.06;100124.22;5585453;31;33619;-71
2023/06/12 14:03:20;;;;;;;5.70;1.60;;;;;;;33.98;19.22;100129.28;5583136;31;34504;-70
2023/06/12 14:06:28;;;;;;;5.80;1.40;;;;;;;33.81;19.89;100118.31;5584169;31;34154;-71
2023/06/12 14:09:38;;;;;;;4.60;1.52;;;;;;;34.64;19.20;100115.84;5576523;31;34145;-72
2023/06/12 14:12:46;;;;;;;5.65;1.30;;;;;;;33.95;20.29;100113.41;5583708;31;33687;-71
2023/06/12 14:15:52;;;;;;;4.28;1.50;;;;;;;35.46;19.14;100117.81;5580401;31;34413;-70
2023/06/12 14:18:58;;;;;;;4.68;1.50;;;;;;;31.24;22.36;100120.03;5569877;31;34696;-71
2023/06/12 14:22:04;;;;;;;4.05;1.27;;;;;;;33.98;19.88;100119.09;5576064;31;34461;-70
2023/06/12 14:25:09;;;;;;;3.17;1.55;;;;;;;29.39;24.01;100107.06;5587062;31;34427;-69